createdAt,value
2023-01-31T00:01:39.983Z,0.50
2023-01-31T00:04:14.095Z,0.54
2023-01-31T00:06:44.709Z,0.34
2023-01-31T00:09:13.079Z,0.40
2023-01-31T00:11:40.635Z,0.19
2023-01-31T00:14:10.711Z,0.42
2023-01-31T00:16:38.391Z,0.41
2023-01-31T00:19:05.963Z,0.41
2023-01-31T00:21:33.390Z,0.42
2023-01-31T00:24:00.694Z,0.30
2023-01-31T00:26:30.862Z,0.42
2023-01-31T00:28:59.810Z,0.36
2023-01-31T00:31:29.184Z,0.36
2023-01-31T00:33:57.359Z,0.25
2023-01-31T00:36:29.787Z,0.28
2023-01-31T00:38:58.993Z,0.22
2023-01-31T00:41:28.059Z,0.38
2023-01-31T00:43:55.377Z,0.37
2023-01-31T00:46:22.515Z,0.35
2023-01-31T00:48:50.320Z,0.43
2023-01-31T00:51:18.534Z,0.39
2023-01-31T00:53:46.398Z,0.43
2023-01-31T00:56:17.083Z,0.47
2023-01-31T00:58:44.236Z,0.50
2023-01-31T01:01:15.916Z,0.56
2023-01-31T01:03:45.499Z,0.51
2023-01-31T01:06:14.487Z,0.54
2023-01-31T01:08:43.781Z,0.55
2023-01-31T01:11:21.365Z,0.59
2023-01-31T01:13:48.821Z,0.59
2023-01-31T01:16:20.550Z,0.60
2023-01-31T01:18:49.378Z,0.47
2023-01-31T01:21:27.571Z,0.63
2023-01-31T01:23:57.266Z,0.62
2023-01-31T01:26:26.907Z,0.61
2023-01-31T01:28:55.640Z,0.49
2023-01-31T01:31:30.478Z,0.50
2023-01-31T01:34:07.062Z,0.59
2023-01-31T01:36:36.395Z,0.61
2023-01-31T01:39:05.891Z,0.54
2023-01-31T01:41:36.351Z,0.57
2023-01-31T01:44:25.065Z,0.53
2023-01-31T01:46:52.683Z,0.44
2023-01-31T01:49:24.306Z,0.56
2023-01-31T01:51:55.221Z,0.49
2023-01-31T01:54:28.642Z,0.50
2023-01-31T01:57:02.160Z,0.43
2023-01-31T01:59:34.468Z,0.61
2023-01-31T02:02:02.265Z,0.66
2023-01-31T02:04:34.393Z,0.56
2023-01-31T02:07:02.919Z,0.57
2023-01-31T02:09:41.871Z,0.63
2023-01-31T02:12:10.573Z,0.54
2023-01-31T02:14:41.955Z,0.60
2023-01-31T02:17:29.361Z,0.58
2023-01-31T02:20:05.958Z,0.43
2023-01-31T02:23:00.639Z,0.65
2023-01-31T02:25:42.790Z,0.64
2023-01-31T02:28:47.588Z,0.72
2023-01-31T02:31:52.148Z,0.63
2023-01-31T02:34:39.659Z,0.57
2023-01-31T02:37:34.174Z,0.63
2023-01-31T02:40:39.229Z,0.68
2023-01-31T02:43:16.704Z,0.66
2023-01-31T02:46:00.875Z,0.73
2023-01-31T02:48:31.184Z,0.71
2023-01-31T02:51:12.820Z,0.62
2023-01-31T02:53:51.777Z,0.62
2023-01-31T02:56:31.672Z,0.58
2023-01-31T02:59:05.157Z,0.71
2023-01-31T03:01:36.645Z,0.62
2023-01-31T03:04:06.517Z,0.35
2023-01-31T03:06:37.299Z,0.74
2023-01-31T03:09:22.831Z,0.74
2023-01-31T03:12:00.842Z,0.82
2023-01-31T03:14:31.212Z,0.40
2023-01-31T03:17:33.166Z,0.83
2023-01-31T03:20:06.640Z,0.86
2023-01-31T03:22:42.365Z,0.81
2023-01-31T03:25:13.768Z,0.91
2023-01-31T03:27:46.991Z,0.85
2023-01-31T03:30:21.266Z,0.82
2023-01-31T03:33:05.872Z,1.00
2023-01-31T03:35:36.158Z,0.84
2023-01-31T03:38:15.396Z,0.84
2023-01-31T03:40:51.872Z,0.91
2023-01-31T03:43:39.790Z,0.92
2023-01-31T03:46:13.433Z,0.93
2023-01-31T03:48:43.745Z,0.97
2023-01-31T03:51:18.267Z,0.97
2023-01-31T03:53:57.556Z,0.98
2023-01-31T03:56:34.914Z,0.87
2023-01-31T03:59:08.279Z,1.07
2023-01-31T04:01:40.662Z,0.84
2023-01-31T04:04:15.023Z,0.95
2023-01-31T04:06:43.489Z,0.95
2023-01-31T04:09:10.777Z,0.97
2023-01-31T04:11:40.652Z,0.93
2023-01-31T04:14:09.649Z,0.91
2023-01-31T04:16:36.842Z,0.92
2023-01-31T04:19:04.112Z,0.82
2023-01-31T04:21:31.059Z,0.92
2023-01-31T04:23:58.084Z,0.94
2023-01-31T04:26:25.111Z,0.95
2023-01-31T04:28:52.147Z,0.97
2023-01-31T04:31:19.249Z,0.85
2023-01-31T04:33:46.334Z,0.96
2023-01-31T04:36:13.433Z,0.97
2023-01-31T04:38:40.445Z,1.01
2023-01-31T04:41:07.400Z,0.92
2023-01-31T04:43:34.641Z,0.97
2023-01-31T04:46:01.576Z,1.00
2023-01-31T04:48:29.833Z,0.98
2023-01-31T04:50:56.983Z,0.98
2023-01-31T04:53:23.914Z,0.93
2023-01-31T04:55:55.213Z,0.92
2023-01-31T04:58:23.168Z,0.87
2023-01-31T05:00:50.186Z,1.00
2023-01-31T05:03:17.162Z,0.61
2023-01-31T05:05:44.127Z,0.99
2023-01-31T05:08:11.143Z,1.00
2023-01-31T05:10:38.122Z,0.69
2023-01-31T05:13:05.130Z,0.96
2023-01-31T05:15:33.053Z,1.04
2023-01-31T05:18:03.461Z,1.06
2023-01-31T05:20:38.468Z,0.82
2023-01-31T05:23:06.168Z,0.92
2023-01-31T05:25:33.161Z,1.00
2023-01-31T05:28:00.161Z,0.95
2023-01-31T05:30:27.608Z,0.87
2023-01-31T05:32:54.819Z,1.00
2023-01-31T05:35:22.361Z,0.98
2023-01-31T05:37:49.539Z,1.00
2023-01-31T05:40:17.745Z,0.92
2023-01-31T05:42:44.903Z,1.06
2023-01-31T05:45:12.819Z,0.95
2023-01-31T05:47:39.765Z,1.01
2023-01-31T05:50:07.093Z,1.03
2023-01-31T05:52:34.071Z,1.06
2023-01-31T05:55:01.556Z,1.09
2023-01-31T05:57:30.087Z,1.14
2023-01-31T05:59:57.127Z,1.08
2023-01-31T06:02:24.137Z,1.05
2023-01-31T06:04:51.124Z,1.16
2023-01-31T06:07:18.180Z,1.17
2023-01-31T06:09:45.140Z,1.20
2023-01-31T06:12:15.316Z,1.27
2023-01-31T06:14:42.391Z,1.25
2023-01-31T06:17:09.773Z,1.25
2023-01-31T06:19:36.743Z,1.28
2023-01-31T06:22:03.729Z,1.26
2023-01-31T06:24:30.799Z,1.26
2023-01-31T06:26:58.229Z,1.16
2023-01-31T06:29:25.260Z,1.20
2023-01-31T06:31:53.820Z,1.19
2023-01-31T06:34:20.891Z,1.20
2023-01-31T06:36:47.904Z,1.15
2023-01-31T06:39:15.231Z,1.22
2023-01-31T06:41:42.267Z,1.24
2023-01-31T06:44:09.341Z,1.25
2023-01-31T06:46:36.696Z,1.27
2023-01-31T06:49:03.706Z,1.20
2023-01-31T06:51:31.707Z,0.92
2023-01-31T06:53:59.972Z,1.25
2023-01-31T06:56:26.937Z,1.25
2023-01-31T06:58:53.896Z,1.39
2023-01-31T07:01:22.762Z,1.19
2023-01-31T07:03:50.126Z,1.19
2023-01-31T07:06:19.970Z,0.98
2023-01-31T07:08:47.408Z,1.37
2023-01-31T07:11:14.416Z,1.25
2023-01-31T07:13:41.413Z,1.29
2023-01-31T07:16:08.779Z,1.32
2023-01-31T07:18:35.759Z,1.40
2023-01-31T07:21:02.829Z,1.36
2023-01-31T07:23:30.100Z,1.48
2023-01-31T07:25:57.063Z,1.34
2023-01-31T07:28:24.031Z,1.46
2023-01-31T07:30:52.062Z,1.45
2023-01-31T07:33:19.077Z,1.56
2023-01-31T07:35:46.042Z,1.56
2023-01-31T07:38:13.094Z,1.45
2023-01-31T07:40:40.368Z,1.51
2023-01-31T07:43:07.400Z,1.48
2023-01-31T07:45:34.831Z,1.40
2023-01-31T07:48:02.102Z,1.46
2023-01-31T07:50:29.602Z,1.44
2023-01-31T07:52:58.789Z,1.48
2023-01-31T07:55:27.176Z,1.49
2023-01-31T07:57:54.211Z,1.44
2023-01-31T08:00:40.049Z,1.38
2023-01-31T08:03:33.727Z,1.51
2023-01-31T08:06:12.706Z,1.56
2023-01-31T08:08:41.869Z,1.47
2023-01-31T08:11:09.552Z,1.54
2023-01-31T08:13:37.878Z,1.53
2023-01-31T08:16:07.257Z,1.52
2023-01-31T08:18:34.335Z,1.51
2023-01-31T08:21:01.471Z,1.51
2023-01-31T08:23:29.366Z,1.58
2023-01-31T08:26:12.571Z,1.64
2023-01-31T08:28:40.263Z,1.67
2023-01-31T08:31:09.550Z,1.65
2023-01-31T08:33:38.287Z,1.69
2023-01-31T08:36:10.451Z,1.72
2023-01-31T08:38:45.651Z,1.72
2023-01-31T08:41:13.185Z,1.78
2023-01-31T08:43:54.273Z,1.80
2023-01-31T08:46:30.835Z,1.83
2023-01-31T08:48:59.450Z,1.87
2023-01-31T08:51:26.526Z,1.88
2023-01-31T08:53:53.826Z,1.92
2023-01-31T08:56:21.692Z,1.88
2023-01-31T08:58:49.068Z,1.94
2023-01-31T09:01:18.493Z,1.96
2023-01-31T09:03:46.320Z,2.01
2023-01-31T09:06:17.195Z,1.99
2023-01-31T09:08:44.615Z,1.75
2023-01-31T09:11:17.384Z,1.56
2023-01-31T09:13:45.727Z,1.94
2023-01-31T09:16:14.262Z,1.93
2023-01-31T09:18:42.143Z,2.09
2023-01-31T09:21:18.390Z,2.10
2023-01-31T09:23:46.338Z,2.15
2023-01-31T09:26:15.090Z,2.02
2023-01-31T09:28:43.565Z,2.04
2023-01-31T09:31:13.138Z,2.13
2023-01-31T09:33:40.784Z,1.74
2023-01-31T09:36:15.809Z,2.23
2023-01-31T09:38:43.161Z,2.22
2023-01-31T09:41:20.279Z,2.26
2023-01-31T09:43:54.207Z,2.30
2023-01-31T09:46:25.910Z,2.35
2023-01-31T09:48:56.209Z,2.33
2023-01-31T09:51:24.064Z,2.35
2023-01-31T09:53:51.297Z,2.46
2023-01-31T09:56:30.714Z,2.54
2023-01-31T09:59:20.702Z,2.51
2023-01-31T10:01:59.486Z,2.67
2023-01-31T10:04:44.239Z,2.68
2023-01-31T10:07:36.783Z,2.70
2023-01-31T10:10:22.786Z,2.74
2023-01-31T10:12:55.097Z,2.70
2023-01-31T10:15:25.240Z,2.79
2023-01-31T10:18:10.981Z,2.75
2023-01-31T10:20:50.374Z,2.71
2023-01-31T10:23:33.653Z,2.70
2023-01-31T10:26:23.967Z,2.69
2023-01-31T10:29:03.208Z,2.65
2023-01-31T10:31:36.912Z,2.63
2023-01-31T10:34:11.008Z,2.51
2023-01-31T10:37:01.520Z,2.66
2023-01-31T10:39:36.730Z,2.65
2023-01-31T10:42:27.870Z,2.65
2023-01-31T10:44:59.241Z,2.29
2023-01-31T10:47:37.427Z,2.64
2023-01-31T10:50:30.805Z,2.19
2023-01-31T10:53:00.906Z,2.73
2023-01-31T10:55:49.411Z,2.77
2023-01-31T10:58:20.187Z,2.74
2023-01-31T11:00:47.505Z,2.74
2023-01-31T11:03:15.626Z,2.73
2023-01-31T11:05:58.005Z,2.76
2023-01-31T11:08:51.007Z,2.82
2023-01-31T11:11:20.230Z,2.92
2023-01-31T11:14:02.264Z,2.95
2023-01-31T11:16:33.075Z,2.95
2023-01-31T11:19:04.225Z,2.99
2023-01-31T11:21:34.234Z,2.85
2023-01-31T11:24:07.010Z,2.94
2023-01-31T11:26:38.481Z,2.92
2023-01-31T11:29:17.634Z,2.92
2023-01-31T11:31:47.702Z,2.88
2023-01-31T11:34:26.736Z,2.95
2023-01-31T11:36:53.803Z,2.95
2023-01-31T11:39:38.097Z,2.79
2023-01-31T11:42:16.107Z,2.98
2023-01-31T11:45:01.836Z,2.95
2023-01-31T11:47:39.447Z,2.87
2023-01-31T11:50:08.117Z,2.84
2023-01-31T11:52:35.700Z,2.84
2023-01-31T11:55:09.063Z,2.84
2023-01-31T11:57:37.970Z,2.67
2023-01-31T12:00:20.319Z,2.77
2023-01-31T12:03:13.792Z,2.78
2023-01-31T12:05:44.258Z,2.73
2023-01-31T12:08:36.393Z,2.80
2023-01-31T12:11:09.772Z,2.77
2023-01-31T12:14:16.279Z,2.72
2023-01-31T12:16:46.412Z,2.63
2023-01-31T12:20:25.190Z,2.70
2023-01-31T12:23:08.251Z,2.67
2023-01-31T12:25:50.115Z,2.72
2023-01-31T12:28:36.098Z,2.58
2023-01-31T12:31:13.529Z,2.58
2023-01-31T12:33:49.301Z,2.41
2023-01-31T12:36:32.448Z,2.54
2023-01-31T12:39:22.553Z,2.41
2023-01-31T12:42:04.381Z,2.43
2023-01-31T12:44:51.990Z,2.36
2023-01-31T12:47:46.159Z,2.38
2023-01-31T12:50:22.115Z,2.36
2023-01-31T12:53:13.098Z,2.40
2023-01-31T12:56:08.666Z,2.46
2023-01-31T12:59:13.964Z,2.44
2023-01-31T13:02:00.935Z,2.33
2023-01-31T13:04:52.425Z,2.39
2023-01-31T13:07:29.647Z,2.35
2023-01-31T13:10:00.686Z,2.30
2023-01-31T13:12:31.462Z,2.23
2023-01-31T13:15:05.592Z,2.24
2023-01-31T13:17:35.705Z,2.32
2023-01-31T13:20:23.845Z,2.24
2023-01-31T13:23:04.067Z,2.14
2023-01-31T13:25:56.145Z,2.14
2023-01-31T13:28:31.524Z,2.18
2023-01-31T13:31:05.837Z,2.30
2023-01-31T13:33:37.461Z,2.21
2023-01-31T13:36:38.394Z,2.16
2023-01-31T13:39:15.602Z,2.22
2023-01-31T13:41:42.591Z,2.20
2023-01-31T13:44:14.404Z,2.19
2023-01-31T13:46:52.476Z,2.17
2023-01-31T13:49:28.843Z,2.05
2023-01-31T13:51:58.856Z,2.21
2023-01-31T13:54:33.294Z,2.11
2023-01-31T13:57:02.383Z,2.14
2023-01-31T13:59:35.736Z,2.09
2023-01-31T14:02:05.895Z,2.19
2023-01-31T14:04:37.192Z,1.94
2023-01-31T14:07:08.039Z,2.27
2023-01-31T14:09:37.506Z,2.18
2023-01-31T14:12:07.352Z,2.34
2023-01-31T14:14:37.577Z,2.36
2023-01-31T14:17:35.064Z,2.12
2023-01-31T14:20:26.958Z,2.42
2023-01-31T14:23:43.463Z,2.43
2023-01-31T14:26:33.121Z,2.46
2023-01-31T14:29:07.802Z,2.40
2023-01-31T14:31:34.976Z,2.28
2023-01-31T14:34:03.608Z,2.38
2023-01-31T14:36:44.778Z,2.41
2023-01-31T14:39:16.771Z,2.38
2023-01-31T14:42:11.061Z,2.38
2023-01-31T14:44:59.527Z,2.39
2023-01-31T14:47:32.374Z,2.37
2023-01-31T14:50:20.747Z,2.15
2023-01-31T14:53:06.958Z,2.30
2023-01-31T14:55:39.968Z,2.35
2023-01-31T14:58:13.459Z,2.35
2023-01-31T15:00:49.112Z,2.32
2023-01-31T15:03:31.905Z,2.21
2023-01-31T15:06:12.972Z,2.41
2023-01-31T15:08:48.207Z,2.37
2023-01-31T15:11:15.259Z,2.35
2023-01-31T15:13:51.522Z,2.39
2023-01-31T15:16:24.861Z,2.22
2023-01-31T15:19:19.416Z,2.32
2023-01-31T15:21:54.439Z,2.37
2023-01-31T15:24:31.611Z,2.42
2023-01-31T15:27:01.011Z,2.37
2023-01-31T15:29:51.205Z,2.39
2023-01-31T15:32:24.530Z,2.42
2023-01-31T15:35:07.482Z,2.43
2023-01-31T15:37:37.047Z,2.37
2023-01-31T15:40:16.268Z,2.36
2023-01-31T15:42:43.203Z,2.36
2023-01-31T15:45:30.810Z,2.48
2023-01-31T15:48:02.532Z,2.40
2023-01-31T15:50:33.339Z,2.30
2023-01-31T15:53:06.115Z,2.34
2023-01-31T15:55:36.282Z,2.20
2023-01-31T15:58:07.028Z,2.22
2023-01-31T16:00:38.235Z,2.33
2023-01-31T16:03:08.458Z,2.30
2023-01-31T16:05:38.608Z,2.30
2023-01-31T16:08:19.470Z,2.29
2023-01-31T16:10:48.906Z,2.29
2023-01-31T16:13:17.024Z,1.91
2023-01-31T16:15:44.389Z,2.08
2023-01-31T16:18:13.031Z,2.23
2023-01-31T16:20:49.939Z,2.27
2023-01-31T16:23:30.524Z,2.33
2023-01-31T16:26:03.475Z,2.24
2023-01-31T16:28:36.822Z,2.14
2023-01-31T16:31:13.275Z,2.35
2023-01-31T16:34:00.143Z,2.27
2023-01-31T16:36:27.046Z,2.28
2023-01-31T16:39:07.045Z,2.16
2023-01-31T16:42:01.223Z,2.19
2023-01-31T16:44:35.090Z,2.09
2023-01-31T16:47:06.589Z,2.28
2023-01-31T16:49:37.543Z,2.34
2023-01-31T16:52:18.245Z,2.37
2023-01-31T16:54:52.053Z,2.37
2023-01-31T16:57:39.269Z,2.44
2023-01-31T17:00:27.697Z,2.39
2023-01-31T17:03:00.198Z,2.33
2023-01-31T17:05:37.704Z,2.30
2023-01-31T17:08:05.274Z,2.35
2023-01-31T17:10:35.908Z,2.33
2023-01-31T17:13:25.510Z,2.44
2023-01-31T17:15:52.835Z,2.42
2023-01-31T17:18:19.872Z,2.38
2023-01-31T17:20:49.281Z,2.35
2023-01-31T17:23:17.514Z,2.36
2023-01-31T17:25:45.432Z,2.31
2023-01-31T17:28:12.455Z,2.25
2023-01-31T17:30:41.637Z,2.15
2023-01-31T17:33:12.609Z,2.15
2023-01-31T17:35:42.616Z,2.14
2023-01-31T17:38:09.654Z,2.27
2023-01-31T17:40:39.813Z,2.25
2023-01-31T17:43:06.855Z,2.22
2023-01-31T17:45:34.262Z,2.19
2023-01-31T17:48:01.305Z,2.28
2023-01-31T17:50:29.692Z,2.32
2023-01-31T17:52:57.199Z,2.32
2023-01-31T17:55:25.725Z,2.30
2023-01-31T17:57:52.912Z,1.92
2023-01-31T18:00:21.189Z,2.26
2023-01-31T18:02:48.173Z,2.35
2023-01-31T18:05:20.451Z,1.90
2023-01-31T18:07:51.388Z,2.29
2023-01-31T18:10:18.566Z,2.28
2023-01-31T18:12:45.517Z,2.29
2023-01-31T18:15:12.973Z,2.31
2023-01-31T18:17:40.059Z,2.22
2023-01-31T18:20:07.664Z,2.35
2023-01-31T18:22:36.137Z,2.19
2023-01-31T18:25:05.453Z,2.25
2023-01-31T18:27:32.481Z,2.31
2023-01-31T18:29:59.420Z,2.18
2023-01-31T18:32:26.395Z,2.28
2023-01-31T18:34:53.497Z,2.24
2023-01-31T18:37:20.725Z,2.28
2023-01-31T18:39:49.310Z,2.24
2023-01-31T18:42:17.193Z,2.26
2023-01-31T18:44:47.254Z,2.25
2023-01-31T18:47:15.427Z,2.28
2023-01-31T18:49:43.236Z,2.31
2023-01-31T18:52:10.522Z,2.25
2023-01-31T18:54:38.139Z,2.07
2023-01-31T18:57:05.668Z,2.19
2023-01-31T18:59:34.775Z,2.28
2023-01-31T19:02:01.964Z,2.25
2023-01-31T19:04:29.076Z,2.32
2023-01-31T19:06:56.109Z,2.23
2023-01-31T19:09:23.515Z,2.33
2023-01-31T19:11:50.538Z,2.36
2023-01-31T19:14:17.557Z,1.91
2023-01-31T19:16:45.055Z,2.38
2023-01-31T19:19:12.978Z,2.39
2023-01-31T19:21:40.078Z,2.25
2023-01-31T19:24:11.304Z,2.37
2023-01-31T19:26:38.636Z,2.37
2023-01-31T19:29:08.635Z,2.28
2023-01-31T19:31:36.781Z,2.27
2023-01-31T19:34:06.689Z,2.23
2023-01-31T19:36:39.198Z,2.32
2023-01-31T19:39:10.377Z,2.23
2023-01-31T19:41:37.472Z,2.37
2023-01-31T19:44:05.075Z,2.35
2023-01-31T19:46:34.662Z,2.28
2023-01-31T19:49:02.145Z,2.30
2023-01-31T19:51:29.699Z,2.28
2023-01-31T19:54:01.703Z,2.37
2023-01-31T19:56:29.701Z,1.99
2023-01-31T19:58:57.257Z,2.28
2023-01-31T20:01:24.697Z,2.34
2023-01-31T20:03:53.856Z,2.35
2023-01-31T20:06:25.738Z,2.37
2023-01-31T20:08:55.433Z,2.39
2023-01-31T20:11:23.289Z,2.41
2023-01-31T20:13:51.979Z,2.27
2023-01-31T20:16:20.475Z,2.40
2023-01-31T20:18:48.126Z,2.00
2023-01-31T20:21:20.865Z,2.37
2023-01-31T20:23:49.245Z,2.27
2023-01-31T20:26:17.678Z,2.31
2023-01-31T20:28:44.790Z,2.28
2023-01-31T20:31:13.713Z,2.38
2023-01-31T20:33:40.945Z,2.41
